createdAt,value
2019-02-19T00:02:24.249Z,1006.82
2019-02-19T00:03:16.813Z,1006.79
2019-02-19T00:04:09.047Z,1006.81
2019-02-19T00:05:01.492Z,1006.83
2019-02-19T00:05:53.705Z,1006.83
2019-02-19T00:06:46.125Z,1006.82
2019-02-19T00:07:38.598Z,1006.82
2019-02-19T00:08:30.972Z,1006.86
2019-02-19T00:09:23.668Z,1006.84
2019-02-19T00:10:15.662Z,1006.83
2019-02-19T00:11:08.159Z,1006.8
2019-02-19T00:12:00.631Z,1006.81
2019-02-19T00:12:53.251Z,1006.76
2019-02-19T00:13:45.725Z,1006.74
2019-02-19T00:14:38.164Z,1006.73
2019-02-19T00:15:30.741Z,1006.76
2019-02-19T00:16:23.225Z,1006.71
2019-02-19T00:17:15.638Z,1006.68
2019-02-19T00:18:08.187Z,1006.67
2019-02-19T00:19:00.475Z,1006.67
2019-02-19T00:19:52.629Z,1006.69
2019-02-19T00:20:45.044Z,1006.74
2019-02-19T00:21:37.077Z,1006.73
2019-02-19T00:22:29.047Z,1006.72
2019-02-19T00:23:21.947Z,1006.74
2019-02-19T00:24:14.397Z,1006.71
2019-02-19T00:25:06.321Z,1006.74
2019-02-19T00:25:58.608Z,1006.73
2019-02-19T00:26:51.253Z,1006.76
2019-02-19T00:27:43.597Z,1006.75
2019-02-19T00:28:36.235Z,1006.74
2019-02-19T00:29:30.118Z,1006.75
2019-02-19T00:30:22.657Z,1006.74
2019-02-19T00:31:15.121Z,1006.74
2019-02-19T00:32:07.487Z,1006.72
2019-02-19T00:32:59.714Z,1006.7
2019-02-19T00:33:51.525Z,1006.71
2019-02-19T00:34:44.177Z,1006.7
2019-02-19T00:35:36.524Z,1006.71
2019-02-19T00:36:28.511Z,1006.71
2019-02-19T00:37:21.870Z,1006.74
2019-02-19T00:38:14.292Z,1006.72
2019-02-19T00:39:06.646Z,1006.75
2019-02-19T00:39:59.630Z,1006.72
2019-02-19T00:40:51.469Z,1006.7
2019-02-19T00:41:44.027Z,1006.68
2019-02-19T00:42:37.927Z,1006.69
2019-02-19T00:43:30.003Z,1006.72
2019-02-19T00:44:22.564Z,1006.74
2019-02-19T00:45:16.594Z,1006.76
2019-02-19T00:46:07.134Z,1006.72
2019-02-19T00:46:59.600Z,1006.72
2019-02-19T00:47:52.526Z,1006.7
2019-02-19T00:48:44.766Z,1006.7
2019-02-19T00:49:36.703Z,1006.68
2019-02-19T00:50:30.112Z,1006.68
2019-02-19T00:51:22.004Z,1006.73
2019-02-19T00:52:14.639Z,1006.69
2019-02-19T00:53:07.507Z,1006.68
2019-02-19T00:54:00.016Z,1006.67
2019-02-19T00:54:53.536Z,1006.67
2019-02-19T00:55:46.062Z,1006.66
2019-02-19T00:56:38.147Z,1006.68
2019-02-19T00:57:30.508Z,1006.68
2019-02-19T00:58:23.586Z,1006.69
2019-02-19T00:59:15.593Z,1006.73
2019-02-19T01:00:07.656Z,1006.7
2019-02-19T01:01:00.103Z,1006.69
2019-02-19T01:01:53.937Z,1006.73
2019-02-19T01:02:45.881Z,1006.69
2019-02-19T01:03:37.676Z,1006.68
2019-02-19T01:04:29.977Z,1006.71
2019-02-19T01:05:23.986Z,1006.67
2019-02-19T01:06:16.034Z,1006.66
2019-02-19T01:07:09.701Z,1006.67
2019-02-19T01:08:01.885Z,1006.65
2019-02-19T01:08:49.423Z,1006.65
2019-02-19T01:09:29.893Z,1006.66
2019-02-19T01:10:10.613Z,1006.71
2019-02-19T01:10:51.311Z,1006.66
2019-02-19T01:11:31.544Z,1006.7
2019-02-19T01:12:12.092Z,1006.69
2019-02-19T01:12:52.667Z,1006.72
2019-02-19T01:13:33.108Z,1006.7
2019-02-19T01:14:13.928Z,1006.75
2019-02-19T01:14:54.743Z,1006.74
2019-02-19T01:15:36.019Z,1006.75
2019-02-19T01:16:16.377Z,1006.74
2019-02-19T01:16:57.605Z,1006.76
2019-02-19T01:17:38.582Z,1006.8
2019-02-19T01:18:19.278Z,1006.79
2019-02-19T01:19:00.131Z,1006.79
2019-02-19T01:19:40.934Z,1006.79
2019-02-19T01:20:21.531Z,1006.8
2019-02-19T01:21:02.304Z,1006.86
2019-02-19T01:21:44.938Z,1006.84
2019-02-19T01:22:25.470Z,1006.84
2019-02-19T01:23:06.087Z,1006.87
2019-02-19T01:23:46.666Z,1006.87
2019-02-19T01:24:27.037Z,1006.89
2019-02-19T01:25:07.728Z,1006.88
2019-02-19T01:25:48.468Z,1006.92
2019-02-19T01:28:10.042Z,1006.94
2019-02-19T01:28:54.670Z,1006.95
2019-02-19T01:29:35.237Z,1006.93
2019-02-19T01:30:15.894Z,1006.92
2019-02-19T01:30:56.829Z,1006.92
2019-02-19T01:31:37.296Z,1006.93
2019-02-19T01:32:17.962Z,1006.94
2019-02-19T01:32:59.154Z,1006.92
2019-02-19T01:33:39.782Z,1006.99
2019-02-19T01:34:20.808Z,1006.95
2019-02-19T01:35:01.658Z,1006.98
2019-02-19T01:35:44.381Z,1007.02
2019-02-19T01:36:25.849Z,1007.03
2019-02-19T01:37:06.226Z,1007.05
2019-02-19T01:39:52.840Z,1007.08
2019-02-19T01:42:29.234Z,1007.04
2019-02-19T01:43:19.251Z,1007.1
2019-02-19T01:44:08.023Z,1007.07
2019-02-19T01:45:00.262Z,1007.05
2019-02-19T01:49:25.347Z,1007.04
2019-02-19T01:50:17.588Z,1007.07
2019-02-19T01:51:10.038Z,1007.03
2019-02-19T01:55:52.227Z,1007.03
2019-02-19T01:56:47.908Z,1007.03
2019-02-19T01:57:40.774Z,1007.06
2019-02-19T01:58:39.013Z,1007.02
2019-02-19T01:59:31.421Z,1007.03
2019-02-19T02:00:23.889Z,1007.05
2019-02-19T02:01:16.528Z,1006.99
2019-02-19T02:02:23.804Z,1006.97
2019-02-19T02:03:18.292Z,1006.99
2019-02-19T02:04:26.907Z,1006.99
2019-02-19T02:05:19.967Z,1007.02
2019-02-19T02:06:16.693Z,1006.96
2019-02-19T02:07:08.885Z,1007.03
2019-02-19T02:08:01.945Z,1006.99
2019-02-19T02:09:02.964Z,1007
2019-02-19T02:09:56.344Z,1007.01
2019-02-19T02:10:50.489Z,1007.02
2019-02-19T02:11:43.845Z,1007.07
2019-02-19T02:12:36.963Z,1007.02
2019-02-19T02:13:31.235Z,1007.05
2019-02-19T02:14:28.835Z,1006.98
2019-02-19T02:15:23.885Z,1007.01
2019-02-19T02:16:17.467Z,1006.98
2019-02-19T02:17:09.989Z,1007.04
2019-02-19T02:18:07.067Z,1007
2019-02-19T02:19:00.008Z,1007.06
2019-02-19T02:19:55.475Z,1007.07
2019-02-19T02:20:50.780Z,1007.05
2019-02-19T02:21:46.033Z,1007.02
2019-02-19T02:22:41.115Z,1007.05
2019-02-19T02:23:38.922Z,1007
2019-02-19T02:24:37.383Z,1007.02
2019-02-19T02:25:29.419Z,1007.01
2019-02-19T02:26:21.991Z,1007.04
2019-02-19T02:27:14.703Z,1007.07
2019-02-19T02:28:07.556Z,1007.03
2019-02-19T02:29:01.025Z,1007.04
2019-02-19T02:29:54.160Z,1007.03
2019-02-19T02:30:46.330Z,1007.09
2019-02-19T02:33:11.822Z,1007.19
2019-02-19T02:33:53.544Z,1007.2
2019-02-19T02:34:34.379Z,1007.17
2019-02-19T02:35:16.987Z,1007.16
2019-02-19T02:35:57.558Z,1007.19
2019-02-19T02:36:38.059Z,1007.15
2019-02-19T02:37:19.059Z,1007.14
2019-02-19T02:37:59.766Z,1007.15
2019-02-19T02:38:41.033Z,1007.11
2019-02-19T02:39:22.663Z,1007.13
2019-02-19T02:40:03.159Z,1007.11
2019-02-19T02:40:43.438Z,1007.13
2019-02-19T02:41:24.599Z,1007.16
2019-02-19T02:42:05.290Z,1007.17
2019-02-19T02:42:45.826Z,1007.19
2019-02-19T02:43:26.730Z,1007.14
2019-02-19T02:44:07.739Z,1007.27
2019-02-19T02:44:48.066Z,1007.21
2019-02-19T02:45:30.268Z,1007.26
2019-02-19T02:46:10.950Z,1007.18
2019-02-19T02:46:52.423Z,1007.17
2019-02-19T02:47:33.073Z,1007.18
2019-02-19T02:48:13.372Z,1007.25
2019-02-19T02:48:54.715Z,1007.26
2019-02-19T02:49:35.989Z,1007.24
2019-02-19T02:50:16.835Z,1007.28
2019-02-19T02:50:57.279Z,1007.27
2019-02-19T02:51:37.794Z,1007.23
2019-02-19T02:52:18.238Z,1007.26
2019-02-19T02:52:58.939Z,1007.27
2019-02-19T02:53:39.435Z,1007.27
2019-02-19T02:54:19.870Z,1007.24
2019-02-19T02:55:00.747Z,1007.24
2019-02-19T02:55:43.470Z,1007.25
2019-02-19T02:56:23.996Z,1007.17
2019-02-19T02:57:04.417Z,1007.21
2019-02-19T02:57:44.985Z,1007.15
2019-02-19T02:58:25.668Z,1007.19
2019-02-19T02:59:06.074Z,1007.16
2019-02-19T02:59:47.682Z,1007.22
2019-02-19T03:00:27.963Z,1007.24
2019-02-19T03:01:08.540Z,1007.27
2019-02-19T03:01:49.821Z,1007.3
2019-02-19T03:02:30.723Z,1007.26
2019-02-19T03:03:11.303Z,1007.31
2019-02-19T03:03:52.415Z,1007.27
2019-02-19T03:04:33.152Z,1007.27
2019-02-19T03:05:14.653Z,1007.3
2019-02-19T03:05:55.251Z,1007.28
2019-02-19T03:06:46.811Z,1007.33
2019-02-19T03:07:28.679Z,1007.29
2019-02-19T03:08:09.017Z,1007.36
2019-02-19T03:08:49.647Z,1007.32
2019-02-19T03:09:30.468Z,1007.31
2019-02-19T03:10:12.623Z,1007.36
2019-02-19T03:10:55.204Z,1007.31
2019-02-19T03:11:35.781Z,1007.35
2019-02-19T03:12:16.423Z,1007.38
2019-02-19T03:12:56.885Z,1007.39
2019-02-19T03:13:37.248Z,1007.38
2019-02-19T03:14:17.698Z,1007.38
2019-02-19T03:14:58.407Z,1007.37
2019-02-19T03:15:38.892Z,1007.36
2019-02-19T03:16:19.375Z,1007.39
2019-02-19T03:17:00.199Z,1007.35
2019-02-19T03:17:40.390Z,1007.36
2019-02-19T03:18:20.818Z,1007.33
2019-02-19T03:19:01.329Z,1007.38
2019-02-19T03:19:41.984Z,1007.35
2019-02-19T03:20:22.688Z,1007.35
2019-02-19T03:21:03.150Z,1007.32
2019-02-19T03:21:44.893Z,1007.35
2019-02-19T03:22:26.276Z,1007.37
2019-02-19T03:23:09.619Z,1007.35
2019-02-19T03:23:52.217Z,1007.36
2019-02-19T03:24:32.610Z,1007.38
2019-02-19T03:25:13.936Z,1007.37
2019-02-19T03:25:54.628Z,1007.39
2019-02-19T03:26:35.835Z,1007.42
2019-02-19T03:27:17.804Z,1007.42
2019-02-19T03:27:58.808Z,1007.41
2019-02-19T03:28:39.048Z,1007.42
2019-02-19T03:29:19.581Z,1007.38
2019-02-19T03:30:00.257Z,1007.41
2019-02-19T03:30:40.890Z,1007.36
2019-02-19T03:31:21.448Z,1007.37
2019-02-19T03:32:01.911Z,1007.43
2019-02-19T03:32:42.248Z,1007.4
2019-02-19T03:33:24.363Z,1007.41
2019-02-19T03:34:05.904Z,1007.38
2019-02-19T03:34:46.894Z,1007.41
2019-02-19T03:35:27.540Z,1007.39
2019-02-19T03:36:07.906Z,1007.41
2019-02-19T03:36:48.471Z,1007.42
2019-02-19T03:37:28.880Z,1007.47
2019-02-19T03:38:09.426Z,1007.44
2019-02-19T03:38:49.881Z,1007.43
2019-02-19T03:39:30.356Z,1007.44
2019-02-19T03:40:13.082Z,1007.44
2019-02-19T03:40:53.318Z,1007.44
2019-02-19T03:41:33.925Z,1007.44
2019-02-19T03:42:14.419Z,1007.51
2019-02-19T03:42:55.485Z,1007.55
2019-02-19T03:43:36.015Z,1007.49
2019-02-19T03:44:17.491Z,1007.55
2019-02-19T03:44:58.569Z,1007.54
2019-02-19T03:45:38.817Z,1007.58
2019-02-19T03:46:19.268Z,1007.57
2019-02-19T03:46:59.820Z,1007.58
2019-02-19T03:47:40.223Z,1007.64
2019-02-19T03:48:20.733Z,1007.59
2019-02-19T03:49:01.787Z,1007.65
2019-02-19T03:49:42.518Z,1007.61
2019-02-19T03:50:22.914Z,1007.62
2019-02-19T03:51:03.319Z,1007.61
2019-02-19T03:51:43.600Z,1007.63
2019-02-19T03:52:24.555Z,1007.62
2019-02-19T03:53:05.331Z,1007.6
2019-02-19T03:53:45.763Z,1007.64
2019-02-19T03:54:26.319Z,1007.68
2019-02-19T03:55:07.193Z,1007.66
2019-02-19T03:55:47.810Z,1007.7
2019-02-19T03:56:28.094Z,1007.72
2019-02-19T03:57:09.027Z,1007.69
2019-02-19T03:57:49.603Z,1007.74
2019-02-19T03:58:29.996Z,1007.73
2019-02-19T03:59:12.172Z,1007.75
2019-02-19T03:59:52.424Z,1007.73
2019-02-19T04:00:33.558Z,1007.75
2019-02-19T04:01:13.877Z,1007.79
2019-02-19T04:01:54.254Z,1007.78
2019-02-19T04:02:36.084Z,1007.76
2019-02-19T04:03:17.306Z,1007.8
2019-02-19T04:03:57.890Z,1007.82
2019-02-19T04:04:38.853Z,1007.8
2019-02-19T04:05:19.288Z,1007.81
2019-02-19T04:06:01.680Z,1007.85
2019-02-19T04:06:42.068Z,1007.83
2019-02-19T04:07:23.014Z,1007.86
2019-02-19T04:08:03.536Z,1007.84
2019-02-19T04:08:44.165Z,1007.87
2019-02-19T04:09:24.737Z,1007.88
2019-02-19T04:10:05.155Z,1007.91
2019-02-19T04:10:45.931Z,1007.9
2019-02-19T04:11:26.408Z,1007.91
2019-02-19T04:12:06.764Z,1007.9
2019-02-19T04:12:47.089Z,1007.88
2019-02-19T04:13:28.426Z,1007.9
2019-02-19T04:14:08.816Z,1007.87
2019-02-19T04:14:49.253Z,1007.84
2019-02-19T04:15:29.893Z,1007.91
2019-02-19T04:16:10.274Z,1007.88
2019-02-19T04:16:50.662Z,1007.93
2019-02-19T04:17:31.907Z,1007.95
2019-02-19T04:18:12.308Z,1007.92
2019-02-19T04:18:52.738Z,1007.97
2019-02-19T04:19:33.178Z,1007.95
2019-02-19T04:20:13.579Z,1007.93
2019-02-19T04:20:53.976Z,1007.97
2019-02-19T04:23:19.262Z,1007.97
2019-02-19T04:24:12.108Z,1008.02
2019-02-19T04:25:04.473Z,1008
2019-02-19T04:25:56.798Z,1008
2019-02-19T04:26:52.160Z,1007.97
2019-02-19T04:27:44.211Z,1008
2019-02-19T04:28:36.803Z,1008
2019-02-19T05:06:16.315Z,1007.75
2019-02-19T05:07:04.515Z,1007.77
2019-02-19T05:07:43.537Z,1007.78
2019-02-19T05:08:26.636Z,1007.81
2019-02-19T05:09:07.092Z,1007.82
2019-02-19T05:09:47.561Z,1007.86
2019-02-19T05:10:28.011Z,1007.86
2019-02-19T05:11:08.531Z,1007.88
2019-02-19T05:11:50.091Z,1007.88
2019-02-19T05:12:31.311Z,1007.88
2019-02-19T05:13:12.733Z,1007.86
2019-02-19T05:13:53.178Z,1007.85
2019-02-19T05:18:41.073Z,1007.83
2019-02-19T05:19:33.214Z,1007.83
2019-02-19T05:20:26.657Z,1007.78
2019-02-19T05:21:18.501Z,1007.83
2019-02-19T05:22:11.133Z,1007.82
2019-02-19T05:23:03.455Z,1007.82
2019-02-19T05:23:56.541Z,1007.81
2019-02-19T05:24:49.138Z,1007.8
2019-02-19T05:25:41.491Z,1007.84
2019-02-19T05:26:33.746Z,1007.86
2019-02-19T05:27:32.156Z,1007.85
2019-02-19T05:28:25.102Z,1007.84
2019-02-19T05:29:17.734Z,1007.84
2019-02-19T05:30:10.134Z,1007.83
2019-02-19T05:31:03.665Z,1007.85
2019-02-19T05:31:56.125Z,1007.84
2019-02-19T05:32:48.667Z,1007.83
2019-02-19T05:33:41.882Z,1007.9
2019-02-19T05:34:35.690Z,1007.88
2019-02-19T05:35:29.035Z,1007.92
2019-02-19T05:36:21.721Z,1007.9
2019-02-19T05:37:14.847Z,1007.94
2019-02-19T05:38:07.295Z,1007.94
2019-02-19T05:38:59.818Z,1007.93
2019-02-19T05:39:51.979Z,1007.95
2019-02-19T05:40:47.854Z,1008
2019-02-19T05:41:38.943Z,1008
2019-02-19T05:42:31.159Z,1008
2019-02-19T05:43:23.401Z,1008
2019-02-19T05:44:15.507Z,1008.04
2019-02-19T05:45:07.440Z,1008.02
2019-02-19T05:46:00.436Z,1008.04
2019-02-19T05:46:53.125Z,1008.03
2019-02-19T05:47:45.750Z,1008.05
2019-02-19T05:48:38.744Z,1008.09
2019-02-19T05:49:30.966Z,1008.11
2019-02-19T05:50:25.063Z,1008.12
2019-02-19T05:51:17.689Z,1008.12
2019-02-19T05:52:09.715Z,1008.12
2019-02-19T05:53:02.637Z,1008.15
2019-02-19T05:53:54.483Z,1008.16
2019-02-19T05:54:51.397Z,1008.18
2019-02-19T05:55:43.588Z,1008.11
2019-02-19T05:56:35.930Z,1008.1
2019-02-19T05:57:28.506Z,1008.18
2019-02-19T05:58:20.980Z,1008.21
2019-02-19T05:59:14.534Z,1008.2
2019-02-19T06:00:08.260Z,1008.11
2019-02-19T06:02:56.790Z,1008.16
2019-02-19T06:03:50.719Z,1008.22
2019-02-19T06:04:43.534Z,1008.2
2019-02-19T06:05:35.834Z,1008.23
2019-02-19T06:06:28.786Z,1008.27
2019-02-19T06:07:21.684Z,1008.27
2019-02-19T06:08:13.643Z,1008.3
2019-02-19T06:09:06.344Z,1008.27
2019-02-19T06:09:58.538Z,1008.26
2019-02-19T06:10:52.641Z,1008.27
2019-02-19T06:11:46.339Z,1008.29
2019-02-19T06:12:40.935Z,1008.3
2019-02-19T06:13:33.222Z,1008.29
2019-02-19T06:14:25.388Z,1008.31
2019-02-19T06:15:17.459Z,1008.36
2019-02-19T06:16:10.714Z,1008.38
2019-02-19T06:17:03.311Z,1008.43
2019-02-19T06:17:58.956Z,1008.43
2019-02-19T06:18:56.783Z,1008.39
2019-02-19T06:19:53.361Z,1008.45
2019-02-19T06:20:45.720Z,1008.47
2019-02-19T06:21:37.910Z,1008.5
2019-02-19T06:22:30.531Z,1008.52
2019-02-19T06:23:22.781Z,1008.52
2019-02-19T06:24:15.180Z,1008.56
2019-02-19T06:25:07.429Z,1008.57
2019-02-19T06:25:56.317Z,1008.54
2019-02-19T06:26:36.678Z,1008.58
2019-02-19T06:27:17.434Z,1008.6
2019-02-19T06:27:58.047Z,1008.63
2019-02-19T06:28:38.179Z,1008.62
2019-02-19T06:29:18.495Z,1008.66
2019-02-19T06:29:58.952Z,1008.67
2019-02-19T06:30:39.751Z,1008.66
2019-02-19T06:31:20.170Z,1008.65
2019-02-19T06:32:00.544Z,1008.68
2019-02-19T06:32:41.331Z,1008.69
2019-02-19T06:33:22.418Z,1008.65
2019-02-19T06:34:03.087Z,1008.67
2019-02-19T06:34:44.009Z,1008.7
2019-02-19T06:35:24.570Z,1008.68
2019-02-19T06:36:04.876Z,1008.68
2019-02-19T06:36:45.293Z,1008.66
2019-02-19T06:37:25.729Z,1008.67
2019-02-19T06:38:06.034Z,1008.69
2019-02-19T06:38:46.800Z,1008.68
2019-02-19T06:39:33.696Z,1008.74
2019-02-19T06:40:16.143Z,1008.73
2019-02-19T06:41:04.282Z,1008.77
2019-02-19T06:43:58.171Z,1008.78
2019-02-19T06:44:54.271Z,1008.83
2019-02-19T06:46:18.096Z,1008.81
2019-02-19T06:47:10.580Z,1008.83
2019-02-19T06:48:11.412Z,1008.85
2019-02-19T06:49:03.957Z,1008.85
2019-02-19T06:49:58.533Z,1008.85
2019-02-19T06:50:58.586Z,1008.79
2019-02-19T06:53:26.725Z,1008.77
2019-02-19T06:54:59.041Z,1008.81
2019-02-19T06:55:54.509Z,1008.76
2019-02-19T06:56:48.045Z,1008.8
2019-02-19T06:57:41.658Z,1008.8
2019-02-19T06:58:36.215Z,1008.86
2019-02-19T06:59:30.697Z,1008.85
2019-02-19T07:00:25.701Z,1008.89
2019-02-19T07:01:21.658Z,1008.87
2019-02-19T07:02:14.647Z,1008.96
2019-02-19T07:03:15.071Z,1008.95
2019-02-19T07:04:08.081Z,1009.01
2019-02-19T07:05:04.376Z,1009
2019-02-19T07:05:58.476Z,1009.04
2019-02-19T07:06:54.301Z,1009.07
2019-02-19T07:07:49.894Z,1009.02
2019-02-19T07:08:42.465Z,1009.06
2019-02-19T07:09:35.203Z,1009.04
2019-02-19T07:10:27.201Z,1009.04
2019-02-19T07:11:20.505Z,1009.07
2019-02-19T07:12:14.860Z,1009.06
2019-02-19T07:14:30.297Z,1009.13
2019-02-19T07:15:28.898Z,1009.18
2019-02-19T07:16:21.879Z,1009.23
2019-02-19T07:17:16.717Z,1009.22
2019-02-19T07:18:10.941Z,1009.28
2019-02-19T07:19:04.276Z,1009.22
2019-02-19T07:19:56.379Z,1009.28
2019-02-19T07:20:48.748Z,1009.28
2019-02-19T07:21:41.871Z,1009.29
2019-02-19T07:22:36.751Z,1009.32
2019-02-19T07:23:28.741Z,1009.3
2019-02-19T07:24:21.031Z,1009.3
2019-02-19T07:25:14.368Z,1009.32
2019-02-19T07:26:08.628Z,1009.33
2019-02-19T07:27:01.435Z,1009.33
2019-02-19T07:27:54.063Z,1009.32
2019-02-19T07:28:47.821Z,1009.35
2019-02-19T07:29:41.398Z,1009.35
2019-02-19T07:30:37.320Z,1009.29
2019-02-19T07:31:29.938Z,1009.35
2019-02-19T07:32:25.058Z,1009.33
2019-02-19T07:33:19.009Z,1009.34
2019-02-19T07:34:13.641Z,1009.38
2019-02-19T07:35:07.058Z,1009.37
2019-02-19T07:36:00.895Z,1009.41
2019-02-19T07:36:53.990Z,1009.41
2019-02-19T07:37:49.121Z,1009.41
2019-02-19T07:38:46.325Z,1009.43
2019-02-19T07:39:42.372Z,1009.43
2019-02-19T07:40:37.028Z,1009.44
2019-02-19T07:41:34.214Z,1009.47
2019-02-19T07:42:29.142Z,1009.48
2019-02-19T07:43:22.948Z,1009.48
2019-02-19T07:44:16.818Z,1009.49
2019-02-19T07:45:14.752Z,1009.5
2019-02-19T07:46:09.246Z,1009.48
2019-02-19T07:47:02.844Z,1009.5
2019-02-19T07:53:52.599Z,1009.53
2019-02-19T07:54:48.598Z,1009.54
2019-02-19T08:07:05.839Z,1009.75
2019-02-19T08:11:34.547Z,1009.76
2019-02-19T08:12:27.021Z,1009.75
2019-02-19T08:13:20.181Z,1009.78
2019-02-19T08:14:16.720Z,1009.79
2019-02-19T08:15:12.405Z,1009.83
2019-02-19T08:25:49.639Z,1009.93
2019-02-19T08:26:52.653Z,1009.96
2019-02-19T08:28:06.675Z,1009.99
2019-02-19T08:29:13.383Z,1010.05
2019-02-19T08:30:06.911Z,1010.04
2019-02-19T08:31:00.885Z,1010.04
2019-02-19T08:31:56.161Z,1010
2019-02-19T08:32:50.951Z,1010.02
2019-02-19T08:33:47.671Z,1010.01
2019-02-19T08:34:44.853Z,1010.03
2019-02-19T08:35:42.730Z,1010.04
2019-02-19T08:36:34.968Z,1010.03
2019-02-19T08:37:27.410Z,1010.01
2019-02-19T08:38:23.659Z,1010.02
2019-02-19T08:39:15.925Z,1010.08
2019-02-19T08:40:09.697Z,1010.06
2019-02-19T08:41:05.380Z,1010.11
2019-02-19T08:42:04.202Z,1010.13
2019-02-19T08:47:28.499Z,1010.2
2019-02-19T09:12:53.318Z,1010.26
2019-02-19T09:13:53.532Z,1010.26
2019-02-19T09:14:50.668Z,1010.32
2019-02-19T09:15:50.069Z,1010.26
2019-02-19T09:16:47.169Z,1010.31
2019-02-19T09:17:51.824Z,1010.31
2019-02-19T09:18:50.977Z,1010.33
2019-02-19T09:19:45.636Z,1010.33
2019-02-19T09:20:51.193Z,1010.32
2019-02-19T09:22:03.749Z,1010.34
2019-02-19T09:23:58.332Z,1010.31
2019-02-19T09:31:24.670Z,1010.38
2019-02-19T09:32:05.335Z,1010.36
2019-02-19T09:32:46.227Z,1010.37
2019-02-19T09:33:27.391Z,1010.38
2019-02-19T09:34:13.343Z,1010.33
2019-02-19T09:35:03.172Z,1010.29
2019-02-19T09:35:43.691Z,1010.33
2019-02-19T09:36:30.836Z,1010.3
2019-02-19T09:37:12.276Z,1010.32
2019-02-19T09:37:54.405Z,1010.34
2019-02-19T09:38:35.641Z,1010.33
2019-02-19T09:51:58.866Z,1010.32
2019-02-19T09:52:41.888Z,1010.31
2019-02-19T09:53:23.051Z,1010.36
2019-02-19T09:54:05.420Z,1010.38
2019-02-19T09:54:47.464Z,1010.34
2019-02-19T09:55:28.130Z,1010.37
2019-02-19T09:56:08.904Z,1010.36
2019-02-19T09:56:49.326Z,1010.33
2019-02-19T09:57:30.143Z,1010.31
2019-02-19T09:58:12.045Z,1010.37
2019-02-19T09:58:54.835Z,1010.39
2019-02-19T09:59:37.063Z,1010.36
2019-02-19T10:00:17.883Z,1010.42
2019-02-19T10:00:58.685Z,1010.39
2019-02-19T10:01:41.830Z,1010.37
2019-02-19T10:02:29.666Z,1010.35
2019-02-19T10:03:11.618Z,1010.4
2019-02-19T10:03:54.098Z,1010.45
2019-02-19T10:04:35.602Z,1010.4
2019-02-19T10:05:18.994Z,1010.38
2019-02-19T10:06:02.153Z,1010.43
2019-02-19T10:06:45.819Z,1010.41
2019-02-19T10:07:27.969Z,1010.42
2019-02-19T10:08:10.183Z,1010.39
2019-02-19T10:08:51.715Z,1010.38
2019-02-19T10:09:34.312Z,1010.39
2019-02-19T10:10:17.810Z,1010.45
2019-02-19T10:11:04.251Z,1010.4
2019-02-19T10:11:49.049Z,1010.45
2019-02-19T10:12:29.947Z,1010.46
2019-02-19T10:13:10.446Z,1010.43
2019-02-19T10:13:51.120Z,1010.49
2019-02-19T10:14:31.689Z,1010.47
2019-02-19T10:15:12.751Z,1010.47
2019-02-19T10:15:54.192Z,1010.49
2019-02-19T10:16:41.512Z,1010.47
2019-02-19T10:17:21.356Z,1010.44
2019-02-19T10:22:33.296Z,1010.47
2019-02-19T10:23:19.122Z,1010.52
2019-02-19T10:24:04.776Z,1010.47
2019-02-19T10:24:45.901Z,1010.36
2019-02-19T10:25:44.661Z,1010.42
2019-02-19T10:26:29.852Z,1010.48
2019-02-19T10:27:11.254Z,1010.52
2019-02-19T10:27:52.420Z,1010.51
2019-02-19T10:28:37.545Z,1010.49
2019-02-19T10:29:30.334Z,1010.36
2019-02-19T11:06:49.956Z,1010.47
2019-02-19T11:07:31.509Z,1010.47
2019-02-19T11:08:14.407Z,1010.46
2019-02-19T11:08:57.047Z,1010.52
2019-02-19T11:09:41.368Z,1010.4
2019-02-19T11:10:23.350Z,1010.43
2019-02-19T11:11:04.821Z,1010.47
2019-02-19T11:11:46.752Z,1010.5
2019-02-19T11:12:27.664Z,1010.4
2019-02-19T11:13:09.161Z,1010.46
2019-02-19T11:13:53.261Z,1010.48
2019-02-19T11:14:35.220Z,1010.49
2019-02-19T11:15:17.800Z,1010.38
2019-02-19T11:16:03.910Z,1010.47
2019-02-19T11:16:44.428Z,1010.43
2019-02-19T11:17:24.983Z,1010.42
2019-02-19T11:18:06.335Z,1010.42
2019-02-19T11:18:53.595Z,1010.37
2019-02-19T11:19:34.633Z,1010.45
2019-02-19T11:20:15.083Z,1010.35
2019-02-19T11:20:56.096Z,1010.35
2019-02-19T11:21:42.435Z,1010.44
2019-02-19T11:22:26.228Z,1010.41
2019-02-19T11:23:09.617Z,1010.4
2019-02-19T11:23:54.092Z,1010.38
2019-02-19T11:24:36.486Z,1010.43
2019-02-19T11:25:19.473Z,1010.4
2019-02-19T11:27:19.297Z,1010.3
2019-02-19T11:28:13.873Z,1010.4
2019-02-19T11:28:54.365Z,1010.35
2019-02-19T11:29:34.780Z,1010.39
2019-02-19T11:30:17.992Z,1010.34
2019-02-19T11:30:58.459Z,1010.35
2019-02-19T11:31:40.920Z,1010.35
2019-02-19T11:32:23.329Z,1010.37
2019-02-19T11:33:06.556Z,1010.33
2019-02-19T11:33:47.484Z,1010.34
2019-02-19T11:34:29.274Z,1010.42
2019-02-19T11:35:10.394Z,1010.35
2019-02-19T11:35:51.113Z,1010.37
2019-02-19T11:36:32.055Z,1010.45
2019-02-19T11:37:13.469Z,1010.42
2019-02-19T11:37:55.462Z,1010.42
2019-02-19T11:38:36.009Z,1010.42
2019-02-19T11:39:17.976Z,1010.31
2019-02-19T11:39:58.410Z,1010.36
2019-02-19T11:40:43.439Z,1010.32
2019-02-19T11:41:26.376Z,1010.4
2019-02-19T11:42:11.117Z,1010.34
2019-02-19T11:42:53.999Z,1010.37
2019-02-19T11:43:35.658Z,1010.33
2019-02-19T11:44:15.543Z,1010.39
2019-02-19T11:44:57.052Z,1010.38
2019-02-19T11:45:38.311Z,1010.36
2019-02-19T11:46:18.744Z,1010.33
2019-02-19T11:46:59.227Z,1010.3
2019-02-19T11:47:39.674Z,1010.32
2019-02-19T11:48:26.370Z,1010.32
2019-02-19T11:49:08.777Z,1010.31
2019-02-19T11:49:48.942Z,1010.32
2019-02-19T11:50:29.364Z,1010.33
2019-02-19T11:51:09.755Z,1010.36
2019-02-19T11:51:55.336Z,1010.34
2019-02-19T11:52:37.398Z,1010.34
2019-02-19T11:53:19.369Z,1010.33
2019-02-19T11:54:02.110Z,1010.33
2019-02-19T11:54:43.410Z,1010.18
2019-02-19T11:55:24.113Z,1010.07
2019-02-19T11:56:05.276Z,1010.4
2019-02-19T11:56:47.514Z,1010.23
2019-02-19T11:57:31.446Z,1010.28
2019-02-19T12:15:25.304Z,1010.34
2019-02-19T12:16:06.061Z,1010.36
2019-02-19T12:16:48.832Z,1010.35
2019-02-19T12:17:30.245Z,1010.35
2019-02-19T12:18:11.042Z,1010.39
2019-02-19T12:18:52.666Z,1010.39
2019-02-19T12:19:34.503Z,1010.34
2019-02-19T12:20:15.452Z,1010.32
2019-02-19T12:20:56.824Z,1010.26
2019-02-19T12:21:38.290Z,1010.37
2019-02-19T12:22:19.106Z,1010.36
2019-02-19T12:23:03.206Z,1010.35
2019-02-19T12:23:43.954Z,1010.33
2019-02-19T12:24:25.843Z,1010.28
2019-02-19T12:25:11.605Z,1010.27
2019-02-19T12:25:56.113Z,1010.33
2019-02-19T12:26:39.652Z,1010.23
2019-02-19T12:27:43.537Z,1010.34
2019-02-19T12:31:25.406Z,1010.36
2019-02-19T12:32:09.438Z,1010.35
2019-02-19T12:32:50.335Z,1010.35
2019-02-19T12:33:34.716Z,1010.4
2019-02-19T12:34:15.154Z,1010.33
2019-02-19T12:34:55.515Z,1010.31
2019-02-19T12:35:38.833Z,1010.36
2019-02-19T12:36:25.455Z,1010.41
2019-02-19T12:37:06.925Z,1010.39
2019-02-19T12:37:52.954Z,1010.33
2019-02-19T12:38:37.812Z,1010.33
2019-02-19T12:39:19.284Z,1010.33
2019-02-19T12:40:00.294Z,1010.33
2019-02-19T12:40:41.993Z,1010.34
2019-02-19T12:41:23.092Z,1010.29
2019-02-19T12:42:04.980Z,1010.34
2019-02-19T12:42:47.453Z,1010.3
2019-02-19T12:43:31.435Z,1010.29
2019-02-19T12:44:12.350Z,1010.34
2019-02-19T12:44:55.331Z,1010.35
2019-02-19T12:45:37.902Z,1010.37
2019-02-19T12:46:19.376Z,1010.25
2019-02-19T12:47:01.388Z,1010.36
2019-02-19T12:47:47.198Z,1010.34
2019-02-19T12:48:29.315Z,1010.31
2019-02-19T12:49:14.128Z,1010.22
2019-02-19T12:49:54.419Z,1010.4
2019-02-19T12:50:35.739Z,1010.39
2019-02-19T12:51:16.269Z,1010.36
2019-02-19T12:51:59.752Z,1010.21
2019-02-19T12:56:36.748Z,1010.36
2019-02-19T12:57:17.502Z,1010.33
2019-02-19T12:57:59.688Z,1010.26
2019-02-19T12:58:41.548Z,1010.34
2019-02-19T12:59:24.657Z,1010.24
2019-02-19T13:00:08.302Z,1010.24
2019-02-19T13:00:49.048Z,1010.27
2019-02-19T13:07:27.037Z,1010.28
2019-02-19T13:08:09.004Z,1010.27
2019-02-19T13:08:49.818Z,1010.36